Time;durP1;ratioP1;P1;durP2;ratioP2;P2;SDS_P1;SDS_P2;PMS_P1;PMS_P2;Temp;Humidity;BMP_temperature;BMP_pressure;BME280_temperature;BME280_humidity;BME280_pressure;Samples;Min_cycle;Max_cycle;Signal;HPM_P1;HPM_P2
2022/05/17 00:00:44;;;;;;;16.30;7.25;;;;;;;15.85;nan;95133.53;5049001;28;20040;-87
2022/05/17 00:03:10;;;;;;;16.58;5.75;;;;;;;17.11;nan;95322.06;5022145;28;20538;-87
2022/05/17 00:05:36;;;;;;;15.00;6.10;;;;;;;18.07;nan;95445.38;5039941;28;20037;-86
2022/05/17 00:08:02;;;;;;;19.20;6.90;;;;;;;16.29;nan;95168.19;5054404;28;20393;-86
2022/05/17 00:10:28;;;;;;;19.77;7.03;;;;;;;14.35;nan;94878.69;5038818;28;20041;-86
2022/05/17 00:12:53;;;;;;;21.50;6.82;;;;;;;14.03;nan;94837.06;5020736;28;20051;-86
2022/05/17 00:15:20;;;;;;;19.40;6.68;;;;;;;17.72;nan;95468.63;5038298;28;20273;-86
2022/05/17 00:17:48;;;;;;;13.77;5.70;;;;;;;16.14;nan;95193.47;5020614;28;20049;-87
2022/05/17 00:20:14;;;;;;;17.10;5.97;;;;;;;18.03;nan;95487.34;5020577;28;20697;-86
2022/05/17 00:22:40;;;;;;;19.83;6.05;;;;;;;18.32;nan;95478.69;5016393;28;20045;-87
2022/05/17 00:25:06;;;;;;;22.15;5.85;;;;;;;16.17;nan;95166.06;5012990;28;20046;-87
2022/05/17 00:27:32;;;;;;;16.63;5.90;;;;;;;17.45;nan;95359.69;5037421;28;20484;-87
2022/05/17 00:29:57;;;;;;;10.77;4.93;;;;;;;15.91;nan;95127.75;5020016;28;20040;-87
2022/05/17 00:32:23;;;;;;;14.20;5.10;;;;;;;16.33;nan;95176.38;5038661;28;20063;-86
2022/05/17 00:34:48;;;;;;;14.73;4.75;;;;;;;14.74;nan;94926.06;5015226;28;20056;-87
2022/05/17 00:37:14;;;;;;;16.55;5.00;;;;;;;17.58;nan;95407.03;5012792;28;20558;-86
2022/05/17 00:39:40;;;;;;;18.17;5.18;;;;;;;15.21;nan;95026.88;5038266;28;20041;-87
2022/05/17 00:42:06;;;;;;;14.25;5.65;;;;;;;16.21;nan;95193.81;5019194;28;20590;-87
2022/05/17 00:44:44;;;;;;;17.35;4.95;;;;;;;18.39;nan;95492.44;5020131;28;20037;-86
2022/05/17 00:47:25;;;;;;;23.13;4.75;;;;;;;16.34;nan;95176.06;5019874;28;20053;-87
2022/05/17 00:50:20;;;;;;;14.90;5.38;;;;;;;17.90;nan;95415.81;5019631;28;20091;-86
2022/05/17 00:52:49;;;;;;;16.55;5.70;;;;;;;17.29;nan;95371.94;5015782;28;20046;-86
2022/05/17 00:55:19;;;;;;;8.70;5.25;;;;;;;16.03;nan;95186.00;5035247;28;20055;-87
2022/05/17 00:58:06;;;;;;;10.48;4.93;;;;;;;15.07;nan;95095.59;5020328;28;20044;-86
2022/05/17 01:00:36;;;;;;;9.80;4.82;;;;;;;17.48;nan;95454.78;5020440;28;20226;-86
2022/05/17 01:03:09;;;;;;;9.98;4.80;;;;;;;17.52;nan;95445.03;5019599;28;20044;-87
2022/05/17 01:05:41;;;;;;;15.00;5.13;;;;;;;17.63;nan;95465.91;5037927;28;20045;-87
2022/05/17 01:08:10;;;;;;;11.50;5.05;;;;;;;15.83;nan;95230.09;5019766;28;20045;-87
2022/05/17 01:10:35;;;;;;;12.00;5.38;;;;;;;17.29;nan;95442.44;5027584;28;20471;-86
2022/05/17 01:15:48;;;;;;;9.65;4.85;;;;;;;12.76;nan;94743.91;5037811;28;20589;-87
2022/05/17 01:18:13;;;;;;;9.32;5.07;;;;;;;16.64;nan;95380.63;5036379;28;20064;-87
2022/05/17 01:20:39;;;;;;;15.52;5.35;;;;;;;15.37;nan;95161.66;5036464;28;20046;-86
2022/05/17 01:23:05;;;;;;;8.90;4.97;;;;;;;14.62;nan;95058.19;5032798;28;20041;-86
2022/05/17 01:25:30;;;;;;;10.27;5.00;;;;;;;12.29;nan;94706.00;5033435;28;20045;-87
2022/05/17 01:28:13;;;;;;;9.95;5.55;;;;;;;14.90;nan;95098.91;5037041;28;20078;-87
2022/05/17 01:30:40;;;;;;;12.23;4.93;;;;;;;17.11;nan;95415.84;5025822;28;20037;-86
2022/05/17 01:33:05;;;;;;;11.02;5.00;;;;;;;14.68;nan;95059.66;5027291;28;20052;-86
2022/05/17 01:35:31;;;;;;;12.73;5.95;;;;;;;17.06;nan;95414.09;5037049;28;20049;-87
2022/05/17 01:37:59;;;;;;;13.18;5.13;;;;;;;17.33;nan;95438.03;5034477;28;20048;-86
2022/05/17 01:40:25;;;;;;;20.92;5.47;;;;;;;17.56;nan;95478.16;5035266;28;20104;-86
2022/05/17 01:42:51;;;;;;;10.23;5.65;;;;;;;17.64;nan;95490.84;5018412;28;20531;-87
2022/05/17 01:45:17;;;;;;;27.98;6.15;;;;;;;15.80;nan;95215.44;5015557;28;20041;-86
2022/05/17 01:47:42;;;;;;;15.82;5.32;;;;;;;15.31;nan;95130.81;5035027;28;20048;-87
2022/05/17 01:50:08;;;;;;;16.85;5.30;;;;;;;16.80;nan;95365.75;5036652;28;20037;-86
2022/05/17 01:52:34;;;;;;;8.32;5.05;;;;;;;16.92;nan;95398.13;5035819;28;20080;-86
2022/05/17 01:54:59;;;;;;;12.75;5.50;;;;;;;15.90;nan;95229.66;5035258;28;20057;-88
2022/05/17 01:57:25;;;;;;;15.55;5.45;;;;;;;15.26;nan;95144.28;5035289;28;20037;-87
2022/05/17 01:59:50;;;;;;;16.15;5.75;;;;;;;16.12;nan;95310.69;5035470;28;20134;-87
2022/05/17 02:02:16;;;;;;;17.33;5.65;;;;;;;13.14;nan;94793.19;5034618;28;20489;-87
2022/05/17 02:04:42;;;;;;;16.23;4.90;;;;;;;16.55;nan;95363.72;5036321;28;20041;-87
2022/05/17 02:07:07;;;;;;;11.95;4.97;;;;;;;16.54;nan;95357.56;5036778;28;20120;-87
2022/05/17 02:09:33;;;;;;;14.43;5.00;;;;;;;16.91;nan;95426.00;5039062;28;20051;-87
2022/05/17 02:11:59;;;;;;;12.75;4.85;;;;;;;14.88;nan;95143.03;5035990;28;20044;-87
2022/05/17 02:14:24;;;;;;;15.52;5.05;;;;;;;16.96;nan;95454.56;5034973;28;20045;-87
2022/05/17 02:16:50;;;;;;;9.68;4.85;;;;;;;16.61;nan;95386.63;5034839;28;20049;-87
2022/05/17 02:19:19;;;;;;;11.30;4.53;;;;;;;16.24;nan;95304.81;5037266;28;20150;-87
2022/05/17 02:21:45;;;;;;;20.85;4.65;;;;;;;14.13;nan;95072.28;5035153;28;20052;-87
2022/05/17 02:24:11;;;;;;;9.77;4.85;;;;;;;16.95;nan;95506.53;5038660;28;20902;-87
2022/05/17 02:26:36;;;;;;;11.50;5.28;;;;;;;16.12;nan;95409.69;5038233;28;20044;-87
2022/05/17 02:29:03;;;;;;;7.70;4.43;;;;;;;15.88;nan;95392.31;5056945;28;20041;-87
2022/05/17 02:31:29;;;;;;;15.30;5.07;;;;;;;16.12;nan;95420.38;5038278;28;20562;-87
2022/05/17 02:33:55;;;;;;;14.15;4.63;;;;;;;14.96;nan;95284.63;5056855;28;20521;-86
2022/05/17 02:36:20;;;;;;;12.60;4.75;;;;;;;14.75;nan;95192.69;5038158;28;20032;-87
2022/05/17 02:38:46;;;;;;;11.93;4.22;;;;;;;16.49;nan;95464.75;5056633;28;20443;-87
2022/05/17 02:41:12;;;;;;;9.43;4.25;;;;;;;14.42;nan;95108.56;5037884;28;20044;-86
2022/05/17 02:43:38;;;;;;;8.57;4.38;;;;;;;15.19;nan;95303.41;5055945;28;20599;-87
2022/05/17 02:46:05;;;;;;;12.85;5.07;;;;;;;16.07;nan;95396.44;5037766;28;20127;-87
2022/05/17 02:48:30;;;;;;;7.65;4.90;;;;;;;16.26;nan;95463.16;5056519;28;20429;-87
2022/05/17 02:50:56;;;;;;;14.18;4.63;;;;;;;14.43;nan;95187.47;5023198;28;20505;-87
2022/05/17 02:53:21;;;;;;;10.65;4.80;;;;;;;15.85;nan;95399.06;5030963;28;20472;-87
2022/05/17 02:55:47;;;;;;;13.85;4.78;;;;;;;16.41;nan;95472.72;5053519;28;20068;-87
2022/05/17 02:58:12;;;;;;;14.63;5.22;;;;;;;16.33;nan;95435.97;5037934;28;20567;-87
2022/05/17 03:00:38;;;;;;;22.08;5.82;;;;;;;15.18;nan;95249.19;5037657;28;20461;-87
2022/05/17 03:03:04;;;;;;;14.02;5.45;;;;;;;15.88;nan;95361.00;5056536;28;20591;-87
2022/05/17 03:05:32;;;;;;;16.80;4.65;;;;;;;15.95;nan;95435.47;5057035;28;20055;-87
2022/05/17 03:07:58;;;;;;;7.85;4.72;;;;;;;15.64;nan;95390.66;5038207;28;20029;-87
2022/05/17 03:10:23;;;;;;;13.75;5.18;;;;;;;15.71;nan;95409.00;5055986;28;20059;-87
2022/05/17 03:12:49;;;;;;;13.63;5.13;;;;;;;15.78;nan;95422.75;5056070;28;20044;-87
2022/05/17 03:15:20;;;;;;;9.73;4.97;;;;;;;13.68;nan;95097.16;5056475;28;20028;-87
2022/05/17 03:17:46;;;;;;;18.60;5.10;;;;;;;14.33;nan;95219.69;5034545;28;20087;-87
2022/05/17 03:20:12;;;;;;;12.30;5.80;;;;;;;15.50;nan;95383.72;5038266;28;20044;-87
2022/05/17 03:22:37;;;;;;;13.18;4.82;;;;;;;14.09;nan;95132.63;5055751;28;20090;-87
2022/05/17 03:25:03;;;;;;;11.85;5.93;;;;;;;11.91;nan;94824.94;5022553;28;20126;-87
2022/05/17 03:27:28;;;;;;;12.23;5.22;;;;;;;14.26;nan;95164.84;5035403;28;20052;-87
2022/05/17 03:29:54;;;;;;;16.55;5.15;;;;;;;15.76;nan;95388.28;5056956;28;20033;-87
2022/05/17 03:32:19;;;;;;;11.75;5.80;;;;;;;15.84;nan;95386.78;5039589;28;20037;-87
2022/05/17 03:34:45;;;;;;;16.50;6.30;;;;;;;16.07;nan;95482.03;5051907;28;20037;-87
2022/05/17 03:37:12;;;;;;;15.32;5.68;;;;;;;16.56;nan;95507.16;5067814;28;20054;-87
2022/05/17 03:39:37;;;;;;;13.75;6.15;;;;;;;14.73;nan;95221.56;5063186;28;20113;-87
2022/05/17 03:42:03;;;;;;;18.02;6.22;;;;;;;15.96;nan;95395.06;5040760;28;20044;-87
2022/05/17 03:44:28;;;;;;;19.95;7.15;;;;;;;15.78;nan;95407.50;5040216;28;20044;-87
2022/05/17 03:46:54;;;;;;;17.65;7.82;;;;;;;15.01;nan;95246.38;5058035;28;20044;-87
2022/05/17 03:49:19;;;;;;;26.10;7.60;;;;;;;14.58;nan;95163.16;5041226;28;20175;-87
2022/05/17 03:51:48;;;;;;;23.20;7.35;;;;;;;15.53;nan;95333.19;5058658;28;20133;-87
2022/05/17 03:54:18;;;;;;;19.17;7.03;;;;;;;14.56;nan;95174.16;5058217;28;20049;-87
2022/05/17 03:56:46;;;;;;;20.58;7.28;;;;;;;15.88;nan;95377.06;5038498;28;20049;-87
2022/05/17 03:59:12;;;;;;;20.20;7.10;;;;;;;15.79;nan;95368.94;5058768;28;20063;-87
2022/05/17 04:01:37;;;;;;;15.90;6.45;;;;;;;13.41;nan;95021.44;5039157;28;20048;-86
2022/05/17 04:04:03;;;;;;;20.50;6.22;;;;;;;14.93;nan;95223.03;5038726;28;20106;-86
2022/05/17 04:06:29;;;;;;;19.38;6.05;;;;;;;15.38;nan;95304.88;5039532;28;20131;-86
2022/05/17 04:08:54;;;;;;;21.20;6.70;;;;;;;12.55;nan;94892.50;5042777;28;20572;-86
2022/05/17 04:11:20;;;;;;;18.40;6.75;;;;;;;15.33;nan;95259.53;5039988;28;20582;-86
2022/05/17 04:13:45;;;;;;;26.15;6.85;;;;;;;16.83;nan;95492.94;5042413;28;20036;-86
2022/05/17 04:16:11;;;;;;;13.93;6.50;;;;;;;15.49;nan;95283.25;5053807;28;20041;-86
2022/05/17 04:18:37;;;;;;;18.92;6.85;;;;;;;14.94;nan;95165.88;5050143;28;20669;-87
2022/05/17 04:21:03;;;;;;;30.40;7.22;;;;;;;15.40;nan;95243.91;5059554;28;20047;-86
2022/05/17 04:23:29;;;;;;;18.33;7.05;;;;;;;13.22;nan;94943.47;5038657;28;20296;-86
2022/05/17 04:25:56;;;;;;;20.08;6.93;;;;;;;17.11;nan;95526.50;5039184;28;20048;-86
2022/05/17 04:28:24;;;;;;;19.20;6.20;;;;;;;14.63;nan;95134.50;5050166;28;20578;-86
2022/05/17 04:31:01;;;;;;;24.85;6.05;;;;;;;12.91;nan;94871.34;5035863;28;20034;-86
2022/05/17 04:33:27;;;;;;;13.00;6.28;;;;;;;14.21;nan;95050.22;5051590;28;20044;-85
2022/05/17 04:35:53;;;;;;;17.63;6.90;;;;;;;14.15;nan;95093.31;5029406;28;20037;-85
2022/05/17 04:38:21;;;;;;;18.50;7.15;;;;;;;14.75;nan;95112.63;5037074;28;20365;-86
2022/05/17 04:40:48;;;;;;;24.20;7.45;;;;;;;15.76;nan;95309.94;5036696;28;20400;-87
2022/05/17 04:43:43;;;;;;;18.10;8.98;;;;;;;13.67;nan;94986.31;5021051;28;20040;-88
2022/05/17 04:46:11;;;;;;;22.73;8.48;;;;;;;13.21;nan;94859.34;5027380;28;20712;-87
2022/05/17 04:48:37;;;;;;;24.08;8.82;;;;;;;15.75;nan;95260.25;5029927;28;20047;-85
2022/05/17 04:51:11;;;;;;;16.60;7.45;;;;;;;13.36;nan;94871.56;5030883;28;20040;-85
2022/05/17 04:53:38;;;;;;;20.95;7.65;;;;;;;15.91;nan;95248.09;5051698;28;20048;-84
2022/05/17 04:56:05;;;;;;;25.48;7.32;;;;;;;13.73;nan;94905.94;5029384;28;20521;-85
2022/05/17 04:58:30;;;;;;;17.52;7.55;;;;;;;15.09;nan;95114.78;5030920;28;20040;-85
2022/05/17 05:00:56;;;;;;;19.55;7.65;;;;;;;14.83;nan;95081.75;5031446;28;20323;-85
2022/05/17 05:03:22;;;;;;;23.45;7.93;;;;;;;14.03;nan;94949.84;5032407;28;20098;-85
2022/05/17 05:05:47;;;;;;;26.48;8.00;;;;;;;15.91;nan;95242.75;5033548;28;20542;-87
2022/05/17 05:08:13;;;;;;;34.63;7.78;;;;;;;16.26;nan;95305.25;5052906;28;20541;-86
2022/05/17 05:10:42;;;;;;;22.42;7.80;;;;;;;16.83;nan;95424.06;5031416;28;20052;-88
2022/05/17 05:13:14;;;;;;;22.83;8.90;;;;;;;15.73;nan;95191.03;5032121;28;20088;-86
2022/05/17 05:15:40;;;;;;;27.40;9.18;;;;;;;17.64;nan;95558.69;5036857;28;20045;-86
2022/05/17 05:18:06;;;;;;;21.52;8.63;;;;;;;16.58;nan;95334.44;5030855;28;20175;-87
2022/05/17 05:20:32;;;;;;;21.88;8.50;;;;;;;16.05;nan;95234.63;5035629;28;20044;-85
2022/05/17 05:22:58;;;;;;;21.13;8.27;;;;;;;15.05;nan;95108.47;5047537;28;20488;-86
2022/05/17 05:25:23;;;;;;;28.92;8.00;;;;;;;13.86;nan;94896.38;5043228;28;20056;-85
2022/05/17 05:27:49;;;;;;;23.35;7.95;;;;;;;14.14;nan;94905.84;5026960;28;20559;-86
2022/05/17 05:30:16;;;;;;;24.55;8.93;;;;;;;14.14;nan;94939.72;5030749;28;20141;-87
2022/05/17 05:32:42;;;;;;;14.90;8.23;;;;;;;16.76;nan;95292.50;5026186;28;20598;-84
2022/05/17 05:35:13;;;;;;;22.77;8.10;;;;;;;16.35;nan;95246.44;5028181;28;20075;-85
2022/05/17 05:37:38;;;;;;;33.83;9.10;;;;;;;16.44;nan;95239.25;5023321;28;20204;-85
2022/05/17 05:40:09;;;;;;;24.13;8.90;;;;;;;16.68;nan;95328.06;5024295;28;20895;-85
2022/05/17 05:42:35;;;;;;;23.33;8.80;;;;;;;17.63;nan;95487.38;5030978;28;20056;-86
2022/05/17 05:45:07;;;;;;;25.20;8.55;;;;;;;14.93;nan;95050.28;5026171;28;20724;-86
2022/05/17 05:47:36;;;;;;;24.30;9.70;;;;;;;16.41;nan;95245.19;5022991;28;21151;-90
2022/05/17 05:50:05;;;;;;;20.83;9.23;;;;;;;15.91;nan;95183.09;5026128;28;20036;-86
2022/05/17 05:52:31;;;;;;;21.90;9.68;;;;;;;14.41;nan;94909.53;5029887;28;20690;-85
2022/05/17 05:54:58;;;;;;;30.63;9.65;;;;;;;15.91;nan;95183.09;5025667;28;20040;-85
2022/05/17 05:57:27;;;;;;;24.88;9.05;;;;;;;17.45;nan;95342.81;5026254;28;20058;-85
2022/05/17 05:59:55;;;;;;;24.73;10.80;;;;;;;15.95;nan;95122.53;5042011;28;20040;-85
2022/05/17 06:02:21;;;;;;;30.73;10.70;;;;;;;14.15;nan;94842.63;5046766;28;20101;-86
2022/05/17 06:04:46;;;;;;;25.75;9.30;;;;;;;16.94;nan;95237.06;5032322;28;20040;-85
2022/05/17 06:07:12;;;;;;;31.95;10.40;;;;;;;14.43;nan;94877.97;5005194;28;20101;-84
2022/05/17 06:09:40;;;;;;;27.77;10.93;;;;;;;14.43;nan;94849.44;5052207;28;20060;-83
2022/05/17 06:12:06;;;;;;;20.17;10.32;;;;;;;16.38;nan;95149.47;5026346;28;20052;-84
2022/05/17 06:14:32;;;;;;;20.67;9.73;;;;;;;16.66;nan;95168.78;5037665;28;20041;-83
2022/05/17 06:16:57;;;;;;;19.55;9.60;;;;;;;17.14;nan;95222.31;5024365;28;20047;-85
2022/05/17 06:19:24;;;;;;;18.02;9.15;;;;;;;14.97;nan;94927.59;5022020;28;20516;-84
2022/05/17 06:21:50;;;;;;;29.48;10.38;;;;;;;15.23;nan;94904.47;5019109;28;20049;-85
2022/05/17 06:24:16;;;;;;;30.48;10.23;;;;;;;17.46;nan;95251.34;5018717;28;20443;-87
2022/05/17 06:26:42;;;;;;;32.83;9.50;;;;;;;16.86;nan;95162.88;5041378;28;20616;-85
2022/05/17 06:29:08;;;;;;;34.55;9.63;;;;;;;18.33;nan;95354.88;5023483;28;20036;-84
2022/05/17 06:31:34;;;;;;;21.55;10.23;;;;;;;15.26;nan;94911.06;5036305;28;20590;-84
2022/05/17 06:34:00;;;;;;;29.58;10.05;;;;;;;18.69;nan;95474.66;5018889;28;20304;-85
2022/05/17 06:36:25;;;;;;;29.92;10.10;;;;;;;19.00;nan;95509.34;5037270;28;20083;-86
2022/05/17 06:38:51;;;;;;;27.70;10.75;;;;;;;18.69;nan;95418.22;5041575;28;20486;-86
2022/05/17 06:41:17;;;;;;;28.23;10.75;;;;;;;18.89;nan;95441.72;5021420;28;20251;-86
2022/05/17 06:43:43;;;;;;;26.83;10.10;;;;;;;17.55;nan;95289.66;5035302;28;20044;-86
2022/05/17 06:46:08;;;;;;;26.95;10.68;;;;;;;19.07;nan;95488.19;5045224;28;20426;-84
2022/05/17 06:48:34;;;;;;;20.40;10.02;;;;;;;18.50;nan;95389.78;5044440;28;20669;-84
2022/05/17 06:51:05;;;;;;;27.85;9.18;;;;;;;16.94;nan;95124.56;5035965;28;20076;-84
2022/05/17 06:53:31;;;;;;;26.77;9.60;;;;;;;18.47;nan;95374.28;5034713;28;20516;-84
2022/05/17 06:55:57;;;;;;;16.73;9.32;;;;;;;17.43;nan;95219.81;5009475;28;20037;-85
2022/05/17 06:58:24;;;;;;;33.15;9.77;;;;;;;19.47;nan;95488.72;5025872;28;20066;-88
2022/05/17 07:00:49;;;;;;;25.80;9.63;;;;;;;18.72;nan;95377.28;5030102;28;20104;-86
2022/05/17 07:03:15;;;;;;;21.13;8.93;;;;;;;19.26;nan;95485.91;5040304;28;20623;-83
2022/05/17 07:05:40;;;;;;;23.63;9.98;;;;;;;17.58;nan;95195.19;5031149;28;20772;-84
2022/05/17 07:08:06;;;;;;;24.45;8.25;;;;;;;17.94;nan;95245.03;5024240;28;20096;-84
2022/05/17 07:13:19;;;;;;;18.75;9.48;;;;;;;19.58;nan;95488.06;5044050;28;20161;-85
2022/05/17 07:15:48;;;;;;;14.88;8.10;;;;;;;19.43;nan;95445.53;5028304;28;20885;-85
2022/05/17 07:18:19;;;;;;;25.00;9.30;;;;;;;18.34;nan;95294.72;5035037;28;20163;-84
2022/05/17 07:20:46;;;;;;;26.27;9.20;;;;;;;18.18;nan;95247.22;5031320;28;20087;-86
2022/05/17 07:23:13;;;;;;;20.10;9.73;;;;;;;16.28;nan;94938.34;5022512;28;20107;-85
2022/05/17 07:25:43;;;;;;;17.85;8.65;;;;;;;18.49;nan;95288.03;5026844;28;20060;-84
2022/05/17 07:28:11;;;;;;;27.33;10.73;;;;;;;18.60;nan;95251.72;5023994;28;20061;-85
2022/05/17 07:30:47;;;;;;;23.15;10.68;;;;;;;18.69;nan;95297.34;5005202;28;20055;-83
2022/05/17 07:33:12;;;;;;;21.13;10.73;;;;;;;18.71;nan;95239.47;5030082;28;20047;-84
2022/05/17 07:35:38;;;;;;;30.75;10.57;;;;;;;18.99;nan;95357.28;5028511;28;20467;-84
2022/05/17 07:38:06;;;;;;;24.98;9.60;;;;;;;17.25;nan;95030.59;5038525;28;20045;-87
2022/05/17 07:40:35;;;;;;;24.83;9.27;;;;;;;18.60;nan;95219.47;5023306;28;20048;-84
2022/05/17 07:43:03;;;;;;;26.23;9.60;;;;;;;17.54;nan;95084.34;5040763;28;20073;-86
2022/05/17 07:45:29;;;;;;;24.50;9.90;;;;;;;18.55;nan;95224.97;5044004;28;20074;-85
2022/05/17 07:47:54;;;;;;;32.33;10.85;;;;;;;16.32;nan;94854.47;5021962;28;20438;-83
2022/05/17 07:50:20;;;;;;;23.70;10.55;;;;;;;19.90;nan;95397.84;5027712;28;20057;-83
2022/05/17 07:52:45;;;;;;;25.05;9.45;;;;;;;16.72;nan;94892.53;5019594;28;20701;-83
2022/05/17 07:55:19;;;;;;;31.48;10.20;;;;;;;16.95;nan;94917.19;5021066;28;20045;-85
2022/05/17 07:57:45;;;;;;;21.75;9.05;;;;;;;19.80;nan;95374.00;5030430;28;20054;-85
2022/05/17 08:00:13;;;;;;;26.60;9.23;;;;;;;18.09;nan;95099.63;5021695;28;20367;-83
2022/05/17 08:02:39;;;;;;;21.70;9.05;;;;;;;16.71;nan;94882.13;5037383;28;20044;-83
2022/05/17 08:05:05;;;;;;;26.85;8.88;;;;;;;17.57;nan;94989.03;5008689;28;20052;-83
2022/05/17 08:07:31;;;;;;;26.48;9.13;;;;;;;16.90;nan;94845.84;5023075;28;20091;-82
2022/05/17 08:09:56;;;;;;;23.95;8.55;;;;;;;19.47;nan;95250.13;5042755;28;20536;-82
2022/05/17 08:12:22;;;;;;;21.27;8.90;;;;;;;20.02;nan;95311.75;5028537;28;20067;-82
2022/05/17 08:14:48;;;;;;;27.85;9.32;;;;;;;20.82;nan;95430.06;5031794;28;20155;-81
2022/05/17 08:17:14;;;;;;;22.63;9.05;;;;;;;20.29;nan;95326.56;5024582;28;20049;-83
2022/05/17 08:19:39;;;;;;;25.15;8.73;;;;;;;20.20;nan;95309.72;5048785;28;20114;-82
2022/05/17 08:22:14;;;;;;;33.83;10.07;;;;;;;20.56;nan;95344.09;5026773;28;20036;-81
2022/05/17 08:27:32;;;;;;;31.33;8.73;;;;;;;20.57;nan;95344.88;5040519;28;20044;-82
2022/05/17 08:30:00;;;;;;;20.60;9.00;;;;;;;19.17;nan;95112.25;5026707;28;20094;-81
2022/05/17 08:35:12;;;;;;;22.15;7.72;;;;;;;20.59;nan;95310.31;5047096;28;20043;-84
2022/05/17 08:37:37;;;;;;;25.05;6.72;;;;;;;20.58;nan;95320.31;5024844;28;20036;-85
2022/05/17 08:40:04;;;;;;;22.17;7.07;;;;;;;19.52;nan;95133.50;5026546;28;20036;-84
2022/05/17 08:42:46;;;;;;;23.05;6.93;;;;;;;21.21;nan;95401.00;5042887;28;20036;-85
2022/05/17 08:45:22;;;;;;;21.10;5.75;;;;;;;19.30;nan;95123.09;5045712;28;20028;-85
2022/05/17 08:47:53;;;;;;;17.10;6.07;;;;;;;21.63;nan;95413.16;5040137;28;20079;-85
2022/05/17 08:50:35;;;;;;;;;;;;;;;21.76;nan;95417.41;5027502;28;20051;-84
2022/05/17 08:53:12;;;;;;;13.13;5.38;;;;;;;19.47;nan;95074.53;5037223;28;20406;-85
2022/05/17 08:55:46;;;;;;;17.55;6.07;;;;;;;20.19;nan;95183.47;5025303;28;20045;-86
2022/05/17 08:58:16;;;;;;;20.95;5.43;;;;;;;20.02;nan;95173.69;5034472;28;20081;-84
2022/05/17 09:00:54;;;;;;;18.58;5.60;;;;;;;18.46;nan;94915.47;5033662;28;20814;-85
2022/05/17 09:03:42;;;;;;;18.20;4.63;;;;;;;21.98;nan;95415.38;5057267;28;20049;-86
2022/05/17 09:06:21;;;;;;;14.43;4.38;;;;;;;21.82;nan;95372.06;5027269;28;20052;-84
2022/05/17 09:09:00;;;;;;;12.77;4.80;;;;;;;21.60;nan;95302.38;5029250;28;20574;-86
2022/05/17 09:11:40;;;;;;;9.45;3.38;;;;;;;18.93;nan;94893.69;5019144;28;20748;-86
2022/05/17 09:14:15;;;;;;;8.50;3.85;;;;;;;20.76;nan;95165.34;5030675;28;20045;-85
2022/05/17 09:16:59;;;;;;;20.45;4.43;;;;;;;19.00;nan;94877.78;5024305;28;20059;-85
2022/05/17 09:19:25;;;;;;;12.48;4.00;;;;;;;18.73;nan;94847.75;5023610;28;20045;-83
2022/05/17 09:22:00;;;;;;;10.55;3.58;;;;;;;20.93;nan;95152.75;5034927;28;20427;-86
2022/05/17 09:24:32;;;;;;;13.82;3.95;;;;;;;21.21;nan;95196.03;5018630;28;20049;-85
2022/05/17 09:27:20;;;;;;;14.13;4.15;;;;;;;22.69;nan;95388.50;5018134;28;20779;-86
2022/05/17 09:29:53;;;;;;;6.45;3.60;;;;;;;20.45;nan;95078.94;5041474;28;20052;-85
2022/05/17 09:32:29;;;;;;;8.93;3.25;;;;;;;20.65;nan;95045.69;5020416;28;20126;-86
2022/05/17 09:35:00;;;;;;;11.80;3.42;;;;;;;21.75;nan;95188.31;5028899;28;20960;-84
2022/05/17 09:37:34;;;;;;;10.52;4.32;;;;;;;18.96;nan;94782.84;5028730;28;20061;-86
2022/05/17 09:40:04;;;;;;;9.57;3.58;;;;;;;21.17;nan;95115.78;5046249;28;20041;-84
2022/05/17 09:42:42;;;;;;;6.47;3.47;;;;;;;19.92;nan;94886.91;5031347;28;20057;-86
2022/05/17 09:45:15;;;;;;;7.07;3.03;;;;;;;23.14;nan;95235.91;5044211;28;20044;-87
2022/05/17 09:48:00;;;;;;;15.93;3.30;;;;;;;23.20;nan;95120.84;5014657;28;20048;-86
2022/05/17 09:53:21;;;;;;;7.95;3.20;;;;;;;24.53;nan;95159.03;5034569;28;20888;-84
2022/05/17 09:55:56;;;;;;;7.88;2.90;;;;;;;23.84;nan;94885.44;5031473;28;20778;-85
2022/05/17 09:58:43;;;;;;;12.02;3.10;;;;;;;28.02;nan;95344.78;5023804;28;20486;-86
2022/05/17 10:01:21;;;;;;;11.23;3.40;;;;;;;29.13;nan;95341.34;5020564;28;20048;-86
2022/05/17 10:04:10;;;;;;;8.13;2.70;;;;;;;28.76;nan;95251.59;5032775;28;20047;-85
2022/05/17 10:06:41;;;;;;;5.57;2.67;;;;;;;26.65;nan;94874.56;5026449;28;20322;-85
2022/05/17 10:09:11;;;;;;;7.47;2.70;;;;;;;28.85;nan;95060.91;5021546;28;20045;-87
2022/05/17 10:11:42;;;;;;;8.20;3.03;;;;;;;28.10;nan;94844.75;5037111;28;20116;-86
2022/05/17 10:14:16;;;;;;;;;;;;;;;31.73;nan;95331.84;5019161;28;20562;-90
2022/05/17 10:16:55;;;;;;;9.75;3.10;;;;;;;31.30;nan;95127.84;5038747;28;19928;-89
2022/05/17 10:19:53;;;;;;;12.65;3.10;;;;;;;33.00;nan;95326.09;5024451;28;20068;-88
2022/05/17 10:22:19;;;;;;;12.30;3.00;;;;;;;33.55;nan;95320.16;5018237;28;20521;-85
2022/05/17 10:25:18;;;;;;;10.88;2.95;;;;;;;32.22;nan;95189.09;5020173;28;20037;-88
2022/05/17 10:27:49;;;;;;;6.03;2.25;;;;;;;31.72;nan;95083.53;5031322;28;20052;-86
2022/05/17 10:30:20;;;;;;;8.32;2.65;;;;;;;32.88;nan;95242.28;5037649;28;20150;-84
2022/05/17 10:33:00;;;;;;;7.10;2.05;;;;;;;33.44;nan;95305.03;5011291;28;20237;-85
2022/05/17 10:35:39;;;;;;;11.77;2.30;;;;;;;32.98;nan;95306.50;5015627;28;20048;-86
2022/05/17 10:38:54;;;;;;;11.40;2.88;;;;;;;29.71;nan;94845.50;5012998;28;20037;-86
2022/05/17 10:41:22;;;;;;;10.32;3.10;;;;;;;30.31;nan;94930.50;5014384;28;20164;-85
2022/05/17 10:43:48;;;;;;;9.95;2.95;;;;;;;31.48;nan;95149.59;5002510;28;20197;-84
2022/05/17 10:46:28;;;;;;;11.10;2.47;;;;;;;31.33;nan;95075.00;5018638;28;20033;-84
2022/05/17 10:49:15;;;;;;;5.68;2.40;;;;;;;32.46;nan;95229.13;5026018;28;20041;-85
2022/05/17 10:51:47;;;;;;;4.57;2.47;;;;;;;31.77;nan;95277.75;4991641;28;20092;-82
2022/05/17 10:54:35;;;;;;;5.55;2.25;;;;;;;31.23;nan;95259.41;5010697;28;20045;-84
2022/05/17 10:57:38;;;;;;;8.98;2.47;;;;;;;31.33;nan;95281.25;5016143;28;20061;-85
2022/05/17 11:00:14;;;;;;;8.27;2.45;;;;;;;30.15;nan;95077.97;5018994;28;20064;-84
2022/05/17 11:03:21;;;;;;;4.63;2.00;;;;;;;30.67;nan;95225.78;5024965;28;20632;-83
2022/05/17 11:06:18;;;;;;;6.80;2.10;;;;;;;30.52;nan;95282.56;5003363;28;20080;-81
2022/05/17 11:09:07;;;;;;;5.15;1.95;;;;;;;29.99;nan;95260.88;5022474;28;20128;-83
2022/05/17 11:11:54;;;;;;;3.53;2.20;;;;;;;30.09;nan;95265.53;5006206;28;20046;-83
2022/05/17 11:14:30;;;;;;;4.90;2.00;;;;;;;29.84;nan;95259.31;5019435;28;20044;-83
2022/05/17 11:17:08;;;;;;;10.25;2.50;;;;;;;30.28;nan;95251.41;5025244;28;20040;-84
2022/05/17 11:19:44;;;;;;;12.40;2.10;;;;;;;29.84;nan;95232.75;5005025;28;20045;-83
2022/05/17 11:22:36;;;;;;;6.30;1.90;;;;;;;29.75;nan;95168.78;5028088;28;20073;-85
2022/05/17 11:25:23;;;;;;;3.75;2.20;;;;;;;30.47;nan;95250.13;5026205;28;20025;-84
2022/05/17 11:28:14;;;;;;;9.05;2.08;;;;;;;30.47;nan;95250.13;5041101;28;20056;-84
2022/05/17 11:30:48;;;;;;;7.25;2.30;;;;;;;30.68;nan;95210.91;5008686;28;20435;-81
2022/05/17 11:33:23;;;;;;;4.28;1.98;;;;;;;31.39;nan;95218.56;5014795;28;20032;-84
2022/05/17 11:35:48;;;;;;;7.10;2.30;;;;;;;31.60;nan;95228.53;5000834;28;20475;-84
2022/05/17 11:38:37;;;;;;;9.43;2.05;;;;;;;31.28;nan;95215.91;5004253;28;20037;-84
2022/05/17 11:41:13;;;;;;;10.98;2.50;;;;;;;31.64;nan;95182.72;5005939;28;20044;-86
2022/05/17 11:43:56;;;;;;;5.78;2.08;;;;;;;29.60;nan;94963.09;5023856;28;20150;-84
2022/05/17 11:46:24;;;;;;;4.95;2.25;;;;;;;31.16;nan;95229.34;5027400;28;20103;-85
2022/05/17 11:49:01;;;;;;;6.03;2.97;;;;;;;29.98;nan;94996.06;5025936;28;20489;-85
2022/05/17 11:51:35;;;;;;;8.45;2.70;;;;;;;29.63;nan;95063.41;5026360;28;20140;-87
2022/05/17 11:54:00;;;;;;;3.78;2.10;;;;;;;28.44;nan;94861.44;5013003;28;20103;-85
2022/05/17 11:56:26;;;;;;;9.52;2.30;;;;;;;31.10;nan;95218.06;5030276;28;20041;-83
2022/05/17 11:58:59;;;;;;;6.95;2.55;;;;;;;31.40;nan;95209.16;5009223;28;20813;-86
2022/05/17 12:01:35;;;;;;;4.93;1.98;;;;;;;31.37;nan;95123.06;5006871;28;20041;-84
2022/05/17 12:04:42;;;;;;;4.40;2.20;;;;;;;31.66;nan;95185.84;5024078;28;20151;-84
2022/05/17 12:07:33;;;;;;;9.82;2.45;;;;;;;32.26;nan;95187.09;5013648;28;20506;-86
2022/05/17 12:10:15;;;;;;;7.40;2.33;;;;;;;29.45;nan;94784.06;5032160;28;20134;-84
2022/05/17 12:13:05;;;;;;;6.28;2.55;;;;;;;31.62;nan;95089.94;5009261;28;20037;-86